Terminal Aerodrome Forecast
Issued by NWS New Orleans/Baton Rouge, LA

Home | Current Version | Previous Version | Text Only | Print | Product List | Glossary On
Versions: 1 2 3 4 5 6 7 8 9 10 11 12 13 14 15 16 17 18 19 20 21 22 23 24
000
FTUS44 KLIX 192300 RRA
TAFNEW
TAF
KNEW 192340Z 2000/2024 04018KT 6SM -RA OVC005
      TEMPO 2002/2006 2SM RA BKN007
     FM200600 06009KT P6SM OVC010
     FM201000 05009KT P6SM OVC020
     FM201400 03010KT P6SM OVC025
     FM201600 02011KT P6SM OVC010
     FM201900 02011KT P6SM BKN025=

USA.gov is the U.S. government's official web portal to all federal, state and local government web resources and services.